sensor_id;sensor_type;location;lat;lon;timestamp;temperature;humidity
76857;DHT22;69705;44.686;37.628;2023-08-07T00:01:35;23.51;86.14
76857;DHT22;69705;44.686;37.628;2023-08-07T00:04:02;23.51;86.32
76857;DHT22;69705;44.686;37.628;2023-08-07T00:06:29;23.56;86.42
76857;DHT22;69705;44.686;37.628;2023-08-07T00:08:56;23.54;86.16
76857;DHT22;69705;44.686;37.628;2023-08-07T00:11:23;23.50;86.57
76857;DHT22;69705;44.686;37.628;2023-08-07T00:13:50;23.54;86.10
76857;DHT22;69705;44.686;37.628;2023-08-07T00:16:17;23.53;86.79
76857;DHT22;69705;44.686;37.628;2023-08-07T00:18:43;23.50;86.29
76857;DHT22;69705;44.686;37.628;2023-08-07T00:21:11;23.51;86.22
76857;DHT22;69705;44.686;37.628;2023-08-07T00:23:38;23.45;86.05
76857;DHT22;69705;44.686;37.628;2023-08-07T00:26:04;23.47;86.25
76857;DHT22;69705;44.686;37.628;2023-08-07T00:28:31;23.51;87.17
76857;DHT22;69705;44.686;37.628;2023-08-07T00:30:58;23.52;86.41
76857;DHT22;69705;44.686;37.628;2023-08-07T00:33:25;23.55;86.64
76857;DHT22;69705;44.686;37.628;2023-08-07T00:35:52;23.52;86.58
76857;DHT22;69705;44.686;37.628;2023-08-07T00:38:19;23.47;86.34
76857;DHT22;69705;44.686;37.628;2023-08-07T00:40:45;23.46;87.18
76857;DHT22;69705;44.686;37.628;2023-08-07T00:43:12;23.43;87.57
76857;DHT22;69705;44.686;37.628;2023-08-07T00:45:47;23.40;88.19
76857;DHT22;69705;44.686;37.628;2023-08-07T00:48:16;23.39;87.80
76857;DHT22;69705;44.686;37.628;2023-08-07T00:50:44;23.40;86.93
76857;DHT22;69705;44.686;37.628;2023-08-07T00:53:12;23.41;86.77
76857;DHT22;69705;44.686;37.628;2023-08-07T00:55:42;23.41;87.05
76857;DHT22;69705;44.686;37.628;2023-08-07T00:58:09;23.42;87.20
76857;DHT22;69705;44.686;37.628;2023-08-07T01:00:36;23.41;87.10
76857;DHT22;69705;44.686;37.628;2023-08-07T01:03:05;23.39;87.05
76857;DHT22;69705;44.686;37.628;2023-08-07T01:05:34;23.41;87.13
76857;DHT22;69705;44.686;37.628;2023-08-07T01:08:01;23.36;87.06
76857;DHT22;69705;44.686;37.628;2023-08-07T01:15:55;23.36;87.08
76857;DHT22;69705;44.686;37.628;2023-08-07T01:18:27;23.32;87.17
76857;DHT22;69705;44.686;37.628;2023-08-07T01:20:55;23.35;87.19
76857;DHT22;69705;44.686;37.628;2023-08-07T01:23:22;23.40;86.51
76857;DHT22;69705;44.686;37.628;2023-08-07T01:25:49;23.43;87.12
76857;DHT22;69705;44.686;37.628;2023-08-07T01:28:33;23.45;87.04
76857;DHT22;69705;44.686;37.628;2023-08-07T01:31:04;23.40;86.77
76857;DHT22;69705;44.686;37.628;2023-08-07T01:34:00;23.36;87.22
76857;DHT22;69705;44.686;37.628;2023-08-07T01:36:27;23.35;86.56
76857;DHT22;69705;44.686;37.628;2023-08-07T01:38:57;23.31;86.94
76857;DHT22;69705;44.686;37.628;2023-08-07T01:41:24;23.23;87.30
76857;DHT22;69705;44.686;37.628;2023-08-07T01:43:52;23.26;87.47
76857;DHT22;69705;44.686;37.628;2023-08-07T01:46:20;23.18;88.57
76857;DHT22;69705;44.686;37.628;2023-08-07T01:48:47;23.13;87.74
76857;DHT22;69705;44.686;37.628;2023-08-07T01:51:14;23.11;87.86
76857;DHT22;69705;44.686;37.628;2023-08-07T01:53:41;23.10;87.95
76857;DHT22;69705;44.686;37.628;2023-08-07T01:56:08;23.11;89.01
76857;DHT22;69705;44.686;37.628;2023-08-07T01:58:35;23.14;88.58
76857;DHT22;69705;44.686;37.628;2023-08-07T02:01:02;23.12;88.80
76857;DHT22;69705;44.686;37.628;2023-08-07T02:03:29;23.13;87.83
76857;DHT22;69705;44.686;37.628;2023-08-07T02:05:55;23.10;87.97
76857;DHT22;69705;44.686;37.628;2023-08-07T02:08:25;23.08;88.16
76857;DHT22;69705;44.686;37.628;2023-08-07T02:10:51;23.08;88.34
76857;DHT22;69705;44.686;37.628;2023-08-07T02:13:19;23.06;88.11
76857;DHT22;69705;44.686;37.628;2023-08-07T02:15:46;23.06;88.28
76857;DHT22;69705;44.686;37.628;2023-08-07T02:18:13;23.01;88.35
76857;DHT22;69705;44.686;37.628;2023-08-07T02:20:40;23.06;88.28
76857;DHT22;69705;44.686;37.628;2023-08-07T02:23:07;23.02;88.85
76857;DHT22;69705;44.686;37.628;2023-08-07T02:25:34;23.01;88.42
76857;DHT22;69705;44.686;37.628;2023-08-07T02:28:01;22.94;88.42
76857;DHT22;69705;44.686;37.628;2023-08-07T02:30:28;22.95;88.98
76857;DHT22;69705;44.686;37.628;2023-08-07T02:32:55;22.92;88.51
76857;DHT22;69705;44.686;37.628;2023-08-07T02:35:22;22.86;88.93
76857;DHT22;69705;44.686;37.628;2023-08-07T02:37:50;22.91;88.78
76857;DHT22;69705;44.686;37.628;2023-08-07T02:40:18;22.95;89.30
76857;DHT22;69705;44.686;37.628;2023-08-07T02:42:45;22.94;89.07
76857;DHT22;69705;44.686;37.628;2023-08-07T02:45:12;22.97;89.26
76857;DHT22;69705;44.686;37.628;2023-08-07T02:47:39;22.96;89.33
76857;DHT22;69705;44.686;37.628;2023-08-07T02:50:06;22.92;89.20
76857;DHT22;69705;44.686;37.628;2023-08-07T02:52:33;22.95;90.02
76857;DHT22;69705;44.686;37.628;2023-08-07T02:55:00;23.01;89.33
76857;DHT22;69705;44.686;37.628;2023-08-07T02:57:27;22.96;88.79
76857;DHT22;69705;44.686;37.628;2023-08-07T02:59:53;22.94;89.45
76857;DHT22;69705;44.686;37.628;2023-08-07T03:02:20;22.85;89.47
76857;DHT22;69705;44.686;37.628;2023-08-07T03:04:47;22.78;89.42
76857;DHT22;69705;44.686;37.628;2023-08-07T03:07:14;22.71;90.00
76857;DHT22;69705;44.686;37.628;2023-08-07T03:09:42;22.77;89.87
76857;DHT22;69705;44.686;37.628;2023-08-07T03:12:11;22.86;89.90
76857;DHT22;69705;44.686;37.628;2023-08-07T03:14:38;22.91;89.99
76857;DHT22;69705;44.686;37.628;2023-08-07T03:17:05;22.96;89.67
76857;DHT22;69705;44.686;37.628;2023-08-07T03:19:32;22.97;90.05
76857;DHT22;69705;44.686;37.628;2023-08-07T03:21:59;22.98;89.35
76857;DHT22;69705;44.686;37.628;2023-08-07T03:24:26;22.99;90.20
76857;DHT22;69705;44.686;37.628;2023-08-07T03:26:53;22.96;89.78
76857;DHT22;69705;44.686;37.628;2023-08-07T03:29:20;23.00;90.53
76857;DHT22;69705;44.686;37.628;2023-08-07T03:31:47;23.10;89.98
76857;DHT22;69705;44.686;37.628;2023-08-07T03:34:15;23.17;90.26
76857;DHT22;69705;44.686;37.628;2023-08-07T03:36:42;23.21;89.76
76857;DHT22;69705;44.686;37.628;2023-08-07T03:39:09;23.34;90.09
76857;DHT22;69705;44.686;37.628;2023-08-07T03:41:39;23.41;89.72
76857;DHT22;69705;44.686;37.628;2023-08-07T03:44:07;23.51;89.78
76857;DHT22;69705;44.686;37.628;2023-08-07T03:46:39;23.59;90.15
76857;DHT22;69705;44.686;37.628;2023-08-07T03:49:05;23.71;89.44
76857;DHT22;69705;44.686;37.628;2023-08-07T03:51:32;23.83;89.33
76857;DHT22;69705;44.686;37.628;2023-08-07T03:53:59;23.91;88.80
76857;DHT22;69705;44.686;37.628;2023-08-07T03:56:27;24.03;89.25
76857;DHT22;69705;44.686;37.628;2023-08-07T03:58:54;24.23;88.72
76857;DHT22;69705;44.686;37.628;2023-08-07T04:01:23;24.41;88.63
76857;DHT22;69705;44.686;37.628;2023-08-07T04:03:50;24.57;88.12
76857;DHT22;69705;44.686;37.628;2023-08-07T04:06:17;24.82;89.99
76857;DHT22;69705;44.686;37.628;2023-08-07T04:08:47;25.01;89.73
76857;DHT22;69705;44.686;37.628;2023-08-07T04:11:14;25.23;89.60
76857;DHT22;69705;44.686;37.628;2023-08-07T04:13:41;25.44;90.05
76857;DHT22;69705;44.686;37.628;2023-08-07T04:16:08;25.62;89.89
76857;DHT22;69705;44.686;37.628;2023-08-07T04:18:35;25.80;89.84
76857;DHT22;69705;44.686;37.628;2023-08-07T04:21:03;25.96;88.80
76857;DHT22;69705;44.686;37.628;2023-08-07T04:23:31;26.09;88.09
76857;DHT22;69705;44.686;37.628;2023-08-07T04:25:59;26.22;87.30
76857;DHT22;69705;44.686;37.628;2023-08-07T04:28:30;26.38;87.21
76857;DHT22;69705;44.686;37.628;2023-08-07T04:30:57;26.49;86.22
76857;DHT22;69705;44.686;37.628;2023-08-07T04:33:24;26.61;85.65
76857;DHT22;69705;44.686;37.628;2023-08-07T04:35:50;26.71;85.61
76857;DHT22;69705;44.686;37.628;2023-08-07T04:38:18;26.81;84.93
76857;DHT22;69705;44.686;37.628;2023-08-07T04:43:17;27.04;84.26
76857;DHT22;69705;44.686;37.628;2023-08-07T04:45:46;27.17;84.86
76857;DHT22;69705;44.686;37.628;2023-08-07T04:48:13;27.21;83.61
76857;DHT22;69705;44.686;37.628;2023-08-07T04:50:41;27.29;83.96
76857;DHT22;69705;44.686;37.628;2023-08-07T04:53:08;27.35;83.20
76857;DHT22;69705;44.686;37.628;2023-08-07T04:55:35;27.40;82.06
76857;DHT22;69705;44.686;37.628;2023-08-07T04:58:02;27.51;81.44
76857;DHT22;69705;44.686;37.628;2023-08-07T05:00:29;27.56;80.86
76857;DHT22;69705;44.686;37.628;2023-08-07T05:02:56;27.59;81.27
76857;DHT22;69705;44.686;37.628;2023-08-07T05:05:24;27.65;81.50
76857;DHT22;69705;44.686;37.628;2023-08-07T05:07:51;27.70;81.34
76857;DHT22;69705;44.686;37.628;2023-08-07T05:10:18;27.64;80.55
76857;DHT22;69705;44.686;37.628;2023-08-07T05:12:45;27.60;80.75
76857;DHT22;69705;44.686;37.628;2023-08-07T05:15:12;27.66;81.12
76857;DHT22;69705;44.686;37.628;2023-08-07T05:17:39;27.65;81.30
76857;DHT22;69705;44.686;37.628;2023-08-07T05:20:06;27.67;81.75
76857;DHT22;69705;44.686;37.628;2023-08-07T05:22:34;27.69;81.96
76857;DHT22;69705;44.686;37.628;2023-08-07T05:25:01;27.67;82.02
76857;DHT22;69705;44.686;37.628;2023-08-07T05:27:28;27.66;81.36
76857;DHT22;69705;44.686;37.628;2023-08-07T05:29:55;27.65;81.02
76857;DHT22;69705;44.686;37.628;2023-08-07T05:32:22;27.60;80.74
76857;DHT22;69705;44.686;37.628;2023-08-07T05:34:48;27.66;81.39
76857;DHT22;69705;44.686;37.628;2023-08-07T05:37:17;27.70;81.41
76857;DHT22;69705;44.686;37.628;2023-08-07T05:39:43;27.66;81.30
76857;DHT22;69705;44.686;37.628;2023-08-07T05:42:10;27.67;81.67
76857;DHT22;69705;44.686;37.628;2023-08-07T05:44:39;27.69;80.12
76857;DHT22;69705;44.686;37.628;2023-08-07T05:47:06;27.74;80.43
76857;DHT22;69705;44.686;37.628;2023-08-07T05:49:34;27.82;80.43
76857;DHT22;69705;44.686;37.628;2023-08-07T05:52:01;27.89;80.72
76857;DHT22;69705;44.686;37.628;2023-08-07T05:54:28;27.94;79.56
76857;DHT22;69705;44.686;37.628;2023-08-07T05:56:55;28.01;80.11
76857;DHT22;69705;44.686;37.628;2023-08-07T05:59:22;28.06;79.93
76857;DHT22;69705;44.686;37.628;2023-08-07T06:01:49;28.04;80.05
76857;DHT22;69705;44.686;37.628;2023-08-07T06:04:16;28.14;80.84
76857;DHT22;69705;44.686;37.628;2023-08-07T06:06:43;28.18;80.28
76857;DHT22;69705;44.686;37.628;2023-08-07T06:09:10;28.23;79.87
76857;DHT22;69705;44.686;37.628;2023-08-07T06:11:38;28.27;79.94
76857;DHT22;69705;44.686;37.628;2023-08-07T06:14:04;28.29;80.49
76857;DHT22;69705;44.686;37.628;2023-08-07T06:16:31;28.30;80.25
76857;DHT22;69705;44.686;37.628;2023-08-07T06:18:58;28.31;80.63
76857;DHT22;69705;44.686;37.628;2023-08-07T06:21:25;28.30;79.81
76857;DHT22;69705;44.686;37.628;2023-08-07T06:23:54;28.34;79.87
76857;DHT22;69705;44.686;37.628;2023-08-07T06:26:21;28.29;80.12
76857;DHT22;69705;44.686;37.628;2023-08-07T06:28:48;28.25;79.62
76857;DHT22;69705;44.686;37.628;2023-08-07T06:31:16;28.17;79.71
76857;DHT22;69705;44.686;37.628;2023-08-07T06:33:43;28.17;79.78
76857;DHT22;69705;44.686;37.628;2023-08-07T06:36:10;28.16;79.74
76857;DHT22;69705;44.686;37.628;2023-08-07T06:38:37;28.19;80.08
76857;DHT22;69705;44.686;37.628;2023-08-07T06:41:05;28.20;79.46
76857;DHT22;69705;44.686;37.628;2023-08-07T06:43:32;28.24;79.70
76857;DHT22;69705;44.686;37.628;2023-08-07T06:45:59;28.21;79.84
76857;DHT22;69705;44.686;37.628;2023-08-07T06:48:26;28.26;79.28
76857;DHT22;69705;44.686;37.628;2023-08-07T06:50:53;28.25;79.68
76857;DHT22;69705;44.686;37.628;2023-08-07T06:53:20;28.31;79.76
76857;DHT22;69705;44.686;37.628;2023-08-07T06:55:47;28.33;79.41
76857;DHT22;69705;44.686;37.628;2023-08-07T06:58:14;28.55;79.70
76857;DHT22;69705;44.686;37.628;2023-08-07T07:00:41;28.63;78.78
76857;DHT22;69705;44.686;37.628;2023-08-07T07:03:08;28.63;78.45
76857;DHT22;69705;44.686;37.628;2023-08-07T07:05:36;28.68;78.58
76857;DHT22;69705;44.686;37.628;2023-08-07T07:08:04;28.79;77.81
76857;DHT22;69705;44.686;37.628;2023-08-07T07:10:31;28.87;77.13
76857;DHT22;69705;44.686;37.628;2023-08-07T07:13:00;28.95;78.05
76857;DHT22;69705;44.686;37.628;2023-08-07T07:15:27;28.99;77.35
76857;DHT22;69705;44.686;37.628;2023-08-07T07:17:54;29.06;77.48
76857;DHT22;69705;44.686;37.628;2023-08-07T07:20:20;29.07;77.44
76857;DHT22;69705;44.686;37.628;2023-08-07T07:22:48;28.99;77.35
76857;DHT22;69705;44.686;37.628;2023-08-07T07:25:15;28.95;77.21
76857;DHT22;69705;44.686;37.628;2023-08-07T07:27:42;28.94;77.50
76857;DHT22;69705;44.686;37.628;2023-08-07T07:30:09;29.06;77.82
76857;DHT22;69705;44.686;37.628;2023-08-07T07:32:36;29.13;76.33
76857;DHT22;69705;44.686;37.628;2023-08-07T07:35:03;29.21;75.70
76857;DHT22;69705;44.686;37.628;2023-08-07T07:37:31;29.26;75.50
76857;DHT22;69705;44.686;37.628;2023-08-07T07:39:58;29.29;74.78
76857;DHT22;69705;44.686;37.628;2023-08-07T07:42:25;29.38;75.63
76857;DHT22;69705;44.686;37.628;2023-08-07T07:44:52;29.38;75.38
76857;DHT22;69705;44.686;37.628;2023-08-07T07:47:19;29.52;75.15
76857;DHT22;69705;44.686;37.628;2023-08-07T07:49:47;29.53;75.14
76857;DHT22;69705;44.686;37.628;2023-08-07T07:52:15;29.58;74.20
76857;DHT22;69705;44.686;37.628;2023-08-07T07:54:42;29.41;74.05
76857;DHT22;69705;44.686;37.628;2023-08-07T07:57:09;29.47;74.15
76857;DHT22;69705;44.686;37.628;2023-08-07T07:59:36;29.67;73.14
76857;DHT22;69705;44.686;37.628;2023-08-07T08:02:03;29.77;73.12
76857;DHT22;69705;44.686;37.628;2023-08-07T08:04:30;29.63;74.25
76857;DHT22;69705;44.686;37.628;2023-08-07T08:06:57;29.67;73.50
76857;DHT22;69705;44.686;37.628;2023-08-07T08:09:26;29.79;72.49
76857;DHT22;69705;44.686;37.628;2023-08-07T08:11:53;30.03;72.22
76857;DHT22;69705;44.686;37.628;2023-08-07T08:14:19;30.17;72.16
76857;DHT22;69705;44.686;37.628;2023-08-07T08:16:49;30.19;72.24
76857;DHT22;69705;44.686;37.628;2023-08-07T08:19:16;30.19;73.35
76857;DHT22;69705;44.686;37.628;2023-08-07T08:21:43;30.40;71.81
76857;DHT22;69705;44.686;37.628;2023-08-07T08:24:10;30.50;71.12
76857;DHT22;69705;44.686;37.628;2023-08-07T08:26:37;30.55;71.93
76857;DHT22;69705;44.686;37.628;2023-08-07T08:29:06;30.41;69.85
76857;DHT22;69705;44.686;37.628;2023-08-07T08:31:33;30.56;71.80
76857;DHT22;69705;44.686;37.628;2023-08-07T08:34:00;30.70;71.64
76857;DHT22;69705;44.686;37.628;2023-08-07T08:36:27;30.91;70.39
76857;DHT22;69705;44.686;37.628;2023-08-07T08:38:54;30.89;70.48
76857;DHT22;69705;44.686;37.628;2023-08-07T08:41:22;31.00;69.00
76857;DHT22;69705;44.686;37.628;2023-08-07T08:43:51;31.05;68.62
76857;DHT22;69705;44.686;37.628;2023-08-07T08:46:20;31.12;70.06
76857;DHT22;69705;44.686;37.628;2023-08-07T08:48:51;31.14;69.20
76857;DHT22;69705;44.686;37.628;2023-08-07T08:51:19;31.04;69.86
76857;DHT22;69705;44.686;37.628;2023-08-07T08:53:48;31.14;69.23
76857;DHT22;69705;44.686;37.628;2023-08-07T08:56:16;31.15;68.75
76857;DHT22;69705;44.686;37.628;2023-08-07T08:58:43;31.35;68.06
76857;DHT22;69705;44.686;37.628;2023-08-07T09:01:10;31.40;68.13
76857;DHT22;69705;44.686;37.628;2023-08-07T09:03:39;31.40;68.49
76857;DHT22;69705;44.686;37.628;2023-08-07T09:06:06;31.19;67.97
76857;DHT22;69705;44.686;37.628;2023-08-07T09:08:34;31.01;68.20
76857;DHT22;69705;44.686;37.628;2023-08-07T09:11:02;31.09;68.95
76857;DHT22;69705;44.686;37.628;2023-08-07T09:13:30;31.08;69.48
76857;DHT22;69705;44.686;37.628;2023-08-07T09:16:00;31.11;69.10
76857;DHT22;69705;44.686;37.628;2023-08-07T09:18:28;31.10;68.76
76857;DHT22;69705;44.686;37.628;2023-08-07T09:20:55;31.13;68.60
76857;DHT22;69705;44.686;37.628;2023-08-07T09:23:24;31.21;68.18
76857;DHT22;69705;44.686;37.628;2023-08-07T09:26:04;31.26;68.99
76857;DHT22;69705;44.686;37.628;2023-08-07T09:28:32;31.41;67.81
76857;DHT22;69705;44.686;37.628;2023-08-07T09:30:59;31.36;67.62
76857;DHT22;69705;44.686;37.628;2023-08-07T09:33:29;31.44;67.68
76857;DHT22;69705;44.686;37.628;2023-08-07T09:36:01;31.55;67.62
76857;DHT22;69705;44.686;37.628;2023-08-07T09:38:29;31.65;67.53
76857;DHT22;69705;44.686;37.628;2023-08-07T09:40:59;31.79;67.19
76857;DHT22;69705;44.686;37.628;2023-08-07T09:43:26;31.85;66.42
76857;DHT22;69705;44.686;37.628;2023-08-07T09:46:02;32.07;67.33
76857;DHT22;69705;44.686;37.628;2023-08-07T09:48:30;32.12;65.78
76857;DHT22;69705;44.686;37.628;2023-08-07T09:51:01;32.17;65.58
76857;DHT22;69705;44.686;37.628;2023-08-07T09:53:31;32.16;66.12
76857;DHT22;69705;44.686;37.628;2023-08-07T09:55:58;32.33;65.38
76857;DHT22;69705;44.686;37.628;2023-08-07T09:58:26;32.49;64.32
76857;DHT22;69705;44.686;37.628;2023-08-07T10:00:53;32.56;64.11
76857;DHT22;69705;44.686;37.628;2023-08-07T10:03:20;32.40;64.17
76857;DHT22;69705;44.686;37.628;2023-08-07T10:05:48;32.57;64.69
76857;DHT22;69705;44.686;37.628;2023-08-07T10:08:15;32.77;63.27
76857;DHT22;69705;44.686;37.628;2023-08-07T10:10:43;32.88;63.85
76857;DHT22;69705;44.686;37.628;2023-08-07T10:13:12;33.14;63.57
76857;DHT22;69705;44.686;37.628;2023-08-07T10:15:40;33.03;60.69
76857;DHT22;69705;44.686;37.628;2023-08-07T10:18:08;32.72;62.61
76857;DHT22;69705;44.686;37.628;2023-08-07T10:20:36;32.83;64.27
76857;DHT22;69705;44.686;37.628;2023-08-07T10:23:11;32.97;63.34
76857;DHT22;69705;44.686;37.628;2023-08-07T10:25:41;32.96;62.67
76857;DHT22;69705;44.686;37.628;2023-08-07T10:28:11;33.17;61.23
76857;DHT22;69705;44.686;37.628;2023-08-07T10:30:40;33.16;61.49
76857;DHT22;69705;44.686;37.628;2023-08-07T10:33:10;33.35;60.47
76857;DHT22;69705;44.686;37.628;2023-08-07T10:35:47;33.28;61.20
76857;DHT22;69705;44.686;37.628;2023-08-07T10:38:20;33.35;61.14
76857;DHT22;69705;44.686;37.628;2023-08-07T10:41:02;33.50;60.29
76857;DHT22;69705;44.686;37.628;2023-08-07T10:43:30;33.41;60.57
76857;DHT22;69705;44.686;37.628;2023-08-07T10:46:16;33.00;61.82
76857;DHT22;69705;44.686;37.628;2023-08-07T10:48:47;33.14;61.44
76857;DHT22;69705;44.686;37.628;2023-08-07T10:51:20;33.12;60.70
76857;DHT22;69705;44.686;37.628;2023-08-07T10:53:48;33.12;61.34
76857;DHT22;69705;44.686;37.628;2023-08-07T10:56:35;33.01;59.96
76857;DHT22;69705;44.686;37.628;2023-08-07T10:59:11;33.08;61.71
76857;DHT22;69705;44.686;37.628;2023-08-07T11:04:13;33.31;61.02
76857;DHT22;69705;44.686;37.628;2023-08-07T11:06:42;33.37;62.22
76857;DHT22;69705;44.686;37.628;2023-08-07T11:09:10;33.55;61.20
76857;DHT22;69705;44.686;37.628;2023-08-07T11:11:45;33.86;60.90
76857;DHT22;69705;44.686;37.628;2023-08-07T11:14:15;33.99;60.83
76857;DHT22;69705;44.686;37.628;2023-08-07T11:16:43;34.11;60.38
76857;DHT22;69705;44.686;37.628;2023-08-07T11:19:13;34.19;59.48
76857;DHT22;69705;44.686;37.628;2023-08-07T11:21:41;34.17;59.29
76857;DHT22;69705;44.686;37.628;2023-08-07T11:24:12;34.04;60.57
76857;DHT22;69705;44.686;37.628;2023-08-07T11:26:41;34.14;59.38
76857;DHT22;69705;44.686;37.628;2023-08-07T11:29:08;33.97;59.21
76857;DHT22;69705;44.686;37.628;2023-08-07T11:31:36;33.87;59.10
76857;DHT22;69705;44.686;37.628;2023-08-07T11:34:04;33.89;59.90
76857;DHT22;69705;44.686;37.628;2023-08-07T11:36:30;33.99;60.61
76857;DHT22;69705;44.686;37.628;2023-08-07T11:38:58;33.95;62.05
76857;DHT22;69705;44.686;37.628;2023-08-07T11:41:26;34.18;60.15
76857;DHT22;69705;44.686;37.628;2023-08-07T11:43:53;34.04;59.22
76857;DHT22;69705;44.686;37.628;2023-08-07T11:46:21;34.04;60.18
76857;DHT22;69705;44.686;37.628;2023-08-07T11:48:48;34.05;60.12
76857;DHT22;69705;44.686;37.628;2023-08-07T11:51:16;33.93;61.29
76857;DHT22;69705;44.686;37.628;2023-08-07T11:53:43;34.04;59.70
76857;DHT22;69705;44.686;37.628;2023-08-07T11:56:12;34.06;60.20
76857;DHT22;69705;44.686;37.628;2023-08-07T11:58:48;34.15;59.56
76857;DHT22;69705;44.686;37.628;2023-08-07T12:01:23;34.08;58.17
76857;DHT22;69705;44.686;37.628;2023-08-07T12:04:09;34.12;57.97
76857;DHT22;69705;44.686;37.628;2023-08-07T12:06:36;33.99;58.04
76857;DHT22;69705;44.686;37.628;2023-08-07T12:09:06;33.94;57.58
76857;DHT22;69705;44.686;37.628;2023-08-07T12:11:39;34.02;58.51
76857;DHT22;69705;44.686;37.628;2023-08-07T12:14:06;33.89;59.02
76857;DHT22;69705;44.686;37.628;2023-08-07T12:16:35;33.80;59.28
76857;DHT22;69705;44.686;37.628;2023-08-07T12:19:02;33.86;60.16
76857;DHT22;69705;44.686;37.628;2023-08-07T12:21:30;33.93;58.22
76857;DHT22;69705;44.686;37.628;2023-08-07T12:23:59;34.00;60.09
76857;DHT22;69705;44.686;37.628;2023-08-07T12:26:26;34.09;59.90
76857;DHT22;69705;44.686;37.628;2023-08-07T12:28:53;34.08;60.86
76857;DHT22;69705;44.686;37.628;2023-08-07T12:31:20;33.99;59.86
76857;DHT22;69705;44.686;37.628;2023-08-07T12:33:49;33.93;60.27
76857;DHT22;69705;44.686;37.628;2023-08-07T12:36:16;33.85;60.49
76857;DHT22;69705;44.686;37.628;2023-08-07T12:38:43;33.89;59.80
76857;DHT22;69705;44.686;37.628;2023-08-07T12:41:10;33.90;60.25
76857;DHT22;69705;44.686;37.628;2023-08-07T12:43:38;33.92;61.63
76857;DHT22;69705;44.686;37.628;2023-08-07T12:46:05;33.99;60.35
76857;DHT22;69705;44.686;37.628;2023-08-07T12:48:32;33.96;59.84
76857;DHT22;69705;44.686;37.628;2023-08-07T12:50:59;34.03;60.29
76857;DHT22;69705;44.686;37.628;2023-08-07T12:53:26;33.99;59.68
76857;DHT22;69705;44.686;37.628;2023-08-07T12:55:52;33.90;61.23
76857;DHT22;69705;44.686;37.628;2023-08-07T12:58:19;33.90;60.89
76857;DHT22;69705;44.686;37.628;2023-08-07T13:00:52;33.87;61.45
76857;DHT22;69705;44.686;37.628;2023-08-07T13:03:19;33.93;60.96
76857;DHT22;69705;44.686;37.628;2023-08-07T13:05:45;33.95;61.25
76857;DHT22;69705;44.686;37.628;2023-08-07T13:08:12;33.99;61.35
76857;DHT22;69705;44.686;37.628;2023-08-07T13:10:39;33.87;61.83
76857;DHT22;69705;44.686;37.628;2023-08-07T13:13:06;33.78;62.09
76857;DHT22;69705;44.686;37.628;2023-08-07T13:15:33;33.79;61.82
76857;DHT22;69705;44.686;37.628;2023-08-07T13:18:01;33.86;61.79
76857;DHT22;69705;44.686;37.628;2023-08-07T13:20:29;33.95;62.15
76857;DHT22;69705;44.686;37.628;2023-08-07T13:23:00;33.90;62.49
76857;DHT22;69705;44.686;37.628;2023-08-07T13:25:28;33.77;63.75
76857;DHT22;69705;44.686;37.628;2023-08-07T13:27:54;33.66;62.42
76857;DHT22;69705;44.686;37.628;2023-08-07T13:30:21;33.70;62.00
76857;DHT22;69705;44.686;37.628;2023-08-07T13:32:48;33.61;63.27
76857;DHT22;69705;44.686;37.628;2023-08-07T13:35:15;33.34;63.60
76857;DHT22;69705;44.686;37.628;2023-08-07T13:37:43;33.35;63.76
76857;DHT22;69705;44.686;37.628;2023-08-07T13:40:10;33.38;63.63
76857;DHT22;69705;44.686;37.628;2023-08-07T13:42:38;33.30;65.06
76857;DHT22;69705;44.686;37.628;2023-08-07T13:45:05;33.03;65.64
76857;DHT22;69705;44.686;37.628;2023-08-07T13:47:33;32.98;64.47
76857;DHT22;69705;44.686;37.628;2023-08-07T13:50:02;33.06;64.63
76857;DHT22;69705;44.686;37.628;2023-08-07T13:52:29;33.11;64.66
76857;DHT22;69705;44.686;37.628;2023-08-07T13:54:56;33.09;64.05
76857;DHT22;69705;44.686;37.628;2023-08-07T13:57:23;33.06;63.56
76857;DHT22;69705;44.686;37.628;2023-08-07T13:59:50;33.05;64.46
76857;DHT22;69705;44.686;37.628;2023-08-07T14:02:17;33.01;62.78
76857;DHT22;69705;44.686;37.628;2023-08-07T14:04:46;33.03;62.26
76857;DHT22;69705;44.686;37.628;2023-08-07T14:07:13;32.99;60.25
76857;DHT22;69705;44.686;37.628;2023-08-07T14:09:40;32.98;60.83
76857;DHT22;69705;44.686;37.628;2023-08-07T14:12:07;32.91;60.47
76857;DHT22;69705;44.686;37.628;2023-08-07T14:14:34;32.79;60.13
76857;DHT22;69705;44.686;37.628;2023-08-07T14:17:02;32.69;60.91
76857;DHT22;69705;44.686;37.628;2023-08-07T14:19:29;32.52;61.69
76857;DHT22;69705;44.686;37.628;2023-08-07T14:21:56;32.30;63.33
76857;DHT22;69705;44.686;37.628;2023-08-07T14:24:23;32.19;62.53
76857;DHT22;69705;44.686;37.628;2023-08-07T14:26:50;32.01;64.33
76857;DHT22;69705;44.686;37.628;2023-08-07T14:29:16;31.93;64.11
76857;DHT22;69705;44.686;37.628;2023-08-07T14:31:43;31.81;63.85
76857;DHT22;69705;44.686;37.628;2023-08-07T14:34:10;31.69;65.24
76857;DHT22;69705;44.686;37.628;2023-08-07T14:36:37;31.55;65.73
76857;DHT22;69705;44.686;37.628;2023-08-07T14:39:04;31.41;66.33
76857;DHT22;69705;44.686;37.628;2023-08-07T14:41:31;31.30;66.32
76857;DHT22;69705;44.686;37.628;2023-08-07T14:43:58;31.23;67.65
76857;DHT22;69705;44.686;37.628;2023-08-07T14:46:25;31.08;67.37
76857;DHT22;69705;44.686;37.628;2023-08-07T14:48:52;31.01;68.04
76857;DHT22;69705;44.686;37.628;2023-08-07T14:51:19;30.93;68.42
76857;DHT22;69705;44.686;37.628;2023-08-07T14:53:46;30.72;68.23
76857;DHT22;69705;44.686;37.628;2023-08-07T14:56:13;30.60;69.09
76857;DHT22;69705;44.686;37.628;2023-08-07T14:58:40;30.55;68.71
76857;DHT22;69705;44.686;37.628;2023-08-07T15:01:07;30.52;69.49
76857;DHT22;69705;44.686;37.628;2023-08-07T15:03:34;30.45;69.65
76857;DHT22;69705;44.686;37.628;2023-08-07T15:06:01;30.42;69.78
76857;DHT22;69705;44.686;37.628;2023-08-07T15:08:28;30.38;70.05
76857;DHT22;69705;44.686;37.628;2023-08-07T15:10:55;30.38;69.42
76857;DHT22;69705;44.686;37.628;2023-08-07T15:13:21;30.34;69.06
76857;DHT22;69705;44.686;37.628;2023-08-07T15:15:48;30.30;69.75
76857;DHT22;69705;44.686;37.628;2023-08-07T15:18:16;30.24;68.80
76857;DHT22;69705;44.686;37.628;2023-08-07T15:20:43;30.20;68.76
76857;DHT22;69705;44.686;37.628;2023-08-07T15:23:10;30.19;68.78
76857;DHT22;69705;44.686;37.628;2023-08-07T15:25:37;30.09;68.71
76857;DHT22;69705;44.686;37.628;2023-08-07T15:28:06;30.04;68.01
76857;DHT22;69705;44.686;37.628;2023-08-07T15:30:33;30.03;67.14